Time;durP1;ratioP1;P1;durP2;ratioP2;P2;SDS_P1;SDS_P2;PMS_P1;PMS_P2;Temp;Humidity;BMP_temperature;BMP_pressure;BME280_temperature;BME280_humidity;BME280_pressure;Samples;Min_cycle;Max_cycle;Signal;HPM_P1;HPM_P2
2022/05/16 00:02:13;;;;;;;8.05;4.22;;;13.00;99.90;;;13.92;92.12;164197.66;4972449;28;20034;-86
2022/05/16 00:04:46;;;;;;;8.93;4.10;;;13.00;99.90;;;13.96;92.09;164208.41;4958132;28;20043;-84
2022/05/16 00:07:13;;;;;;;10.25;4.15;;;13.00;99.90;;;14.09;92.01;164243.19;4956648;28;20039;-84
2022/05/16 00:09:39;;;;;;;9.15;4.45;;;13.10;99.90;;;14.09;90.87;164243.19;4973159;28;20471;-85
2022/05/16 00:12:08;;;;;;;6.97;3.53;;;13.10;99.90;;;13.94;90.97;164203.00;4976488;28;20045;-83
2022/05/16 00:14:35;;;;;;;8.70;4.32;;;13.00;99.90;;;13.85;92.08;164178.91;4976616;28;20105;-83
2022/05/16 00:17:01;;;;;;;8.18;4.35;;;12.90;99.90;;;13.76;92.68;164154.84;4974612;28;20031;-86
2022/05/16 00:19:28;;;;;;;7.95;4.65;;;12.90;99.90;;;13.75;93.66;164153.50;4991543;28;20122;-84
2022/05/16 00:21:53;;;;;;;9.80;4.68;;;12.80;99.90;;;13.75;93.29;164153.50;4991002;28;20031;-87
2022/05/16 00:24:24;;;;;;;9.75;4.65;;;12.80;99.90;;;13.70;94.10;164140.13;4976549;28;20026;-86
2022/05/16 00:26:50;;;;;;;11.88;4.95;;;12.80;99.90;;;13.71;94.46;164142.78;4977152;28;20019;-84
2022/05/16 00:29:15;;;;;;;11.77;4.32;;;12.80;99.90;;;13.73;93.69;164148.16;4976597;28;20045;-88
2022/05/16 00:31:42;;;;;;;11.40;4.78;;;12.80;99.90;;;13.89;93.35;164191.00;4982568;28;20023;-84
2022/05/16 00:34:08;;;;;;;8.02;3.90;;;12.90;99.90;;;14.01;92.08;164223.09;4995708;28;20046;-83
2022/05/16 00:36:34;;;;;;;8.15;4.25;;;13.00;99.90;;;14.16;91.22;164263.25;4976922;28;20031;-85
2022/05/16 00:38:59;;;;;;;8.50;4.20;;;13.20;99.90;;;14.33;90.23;164307.50;4975083;28;20069;-84
2022/05/16 00:41:25;;;;;;;7.65;4.07;;;13.30;99.90;;;14.48;88.79;164347.63;4975414;28;20118;-86
2022/05/16 00:43:59;;;;;;;7.65;4.10;;;13.50;99.90;;;14.48;88.18;164347.63;4975882;28;20402;-86
2022/05/16 00:46:32;;;;;;;8.95;4.03;;;13.50;99.90;;;14.54;88.09;164363.75;4975499;28;20118;-84
2022/05/16 00:49:11;;;;;;;10.55;4.60;;;13.60;99.90;;;14.52;88.30;164358.38;4974279;28;20027;-85
2022/05/16 00:52:07;;;;;;;13.95;4.85;;;13.60;99.90;;;14.66;87.25;164395.88;4974803;28;20027;-85
2022/05/16 00:54:49;;;;;;;13.65;5.50;;;13.70;99.90;;;14.74;86.63;164415.94;4990599;28;20137;-84
2022/05/16 00:57:24;;;;;;;12.98;4.95;;;13.80;99.90;;;14.84;85.84;164441.38;4975992;28;20051;-84
2022/05/16 01:00:25;;;;;;;12.00;5.03;;;13.90;99.90;;;14.93;85.13;164466.81;4977391;28;20031;-85
2022/05/16 01:05:46;;;;;;;9.40;3.97;;;14.10;99.90;;;14.96;84.99;164473.56;4977229;28;20033;-85
2022/05/16 01:08:19;;;;;;;10.57;3.92;;;14.00;99.90;;;15.00;84.46;164484.25;4991781;28;20035;-84
2022/05/16 01:10:46;;;;;;;9.05;3.40;;;14.00;99.90;;;15.06;84.25;164500.31;4965185;28;20034;-85
2022/05/16 01:13:13;;;;;;;8.18;3.30;;;14.10;99.90;;;15.10;83.62;164512.38;4955435;28;20098;-85
2022/05/16 01:15:49;;;;;;;7.38;3.78;;;14.20;99.90;;;15.25;82.46;164552.56;4971272;28;20068;-84
2022/05/16 01:18:22;;;;;;;11.65;4.25;;;14.30;99.90;;;15.26;82.49;164553.91;4955025;28;20240;-86
2022/05/16 01:21:04;;;;;;;8.88;3.28;;;14.30;99.90;;;15.27;82.30;164556.59;4956833;28;20039;-86
2022/05/16 01:23:49;;;;;;;10.75;4.25;;;14.30;99.90;;;15.29;82.08;164563.28;4956831;28;20170;-86
2022/05/16 01:26:26;;;;;;;8.85;3.83;;;14.40;99.90;;;15.28;82.15;164559.28;4956464;28;20164;-86
2022/05/16 01:28:54;;;;;;;7.95;3.70;;;14.30;99.90;;;15.24;82.26;164548.56;4957269;28;20063;-85
2022/05/16 01:31:21;;;;;;;11.35;4.80;;;14.20;99.90;;;15.17;82.72;164531.16;4958650;28;20023;-84
2022/05/16 01:33:47;;;;;;;7.95;3.45;;;14.20;99.90;;;15.14;82.80;164523.09;4959739;28;20035;-87
2022/05/16 01:36:13;;;;;;;9.52;3.97;;;14.20;99.90;;;15.12;82.94;164516.41;4958760;28;20031;-86
2022/05/16 01:38:41;;;;;;;9.73;4.13;;;14.20;99.90;;;15.18;82.71;164533.84;4957920;28;20129;-85
2022/05/16 01:41:18;;;;;;;10.77;4.22;;;14.20;99.90;;;15.22;82.29;164543.16;4957435;28;20504;-85
2022/05/16 01:43:55;;;;;;;10.68;4.07;;;14.20;99.90;;;15.24;82.28;164549.91;4959410;28;20095;-86
2022/05/16 01:46:35;;;;;;;12.23;4.40;;;14.20;99.90;;;15.29;81.92;164561.94;4957576;28;20058;-85
2022/05/16 01:49:04;;;;;;;10.38;3.97;;;14.30;99.90;;;15.30;81.30;164565.97;4957597;28;20023;-85
2022/05/16 01:51:30;;;;;;;9.35;4.03;;;14.30;99.90;;;15.28;81.54;164559.28;4958666;28;20028;-83
2022/05/16 01:53:56;;;;;;;9.73;4.70;;;14.30;99.90;;;15.24;81.60;164549.91;4957303;28;20094;-85
2022/05/16 01:56:22;;;;;;;10.48;4.43;;;14.30;99.90;;;15.29;81.18;164561.94;4959831;28;20074;-84
2022/05/16 01:58:48;;;;;;;7.53;3.78;;;14.30;99.90;;;15.27;81.26;164557.94;4968051;28;20031;-82
2022/05/16 02:01:16;;;;;;;6.95;4.20;;;14.30;99.90;;;15.31;81.01;164567.31;4968607;28;20083;-80
2022/05/16 02:03:47;;;;;;;10.32;3.95;;;14.30;99.90;;;15.28;81.06;164559.28;4970424;28;20035;-85
2022/05/16 02:06:13;;;;;;;10.20;3.67;;;14.30;99.90;;;15.26;81.02;164553.91;4964891;28;20038;-83
2022/05/16 02:08:41;;;;;;;8.55;4.05;;;14.30;99.90;;;15.31;80.89;164568.63;4956610;28;20031;-84
2022/05/16 02:11:11;;;;;;;8.60;3.28;;;14.30;99.90;;;15.27;80.89;164556.59;4970943;28;20031;-85
2022/05/16 02:13:41;;;;;;;8.57;3.78;;;14.30;99.90;;;15.23;81.17;164547.22;4975981;28;20073;-83
2022/05/16 02:16:09;;;;;;;10.75;4.00;;;14.20;99.90;;;15.21;81.14;164540.53;4976147;28;20054;-84
2022/05/16 02:18:36;;;;;;;10.57;3.88;;;14.20;99.90;;;15.22;81.05;164544.50;4993422;28;20035;-85
2022/05/16 02:26:33;;;;;;;9.52;4.18;;;14.20;99.90;;;15.13;81.50;164520.41;4978236;28;20098;-84
2022/05/16 02:28:59;;;;;;;8.30;3.90;;;14.10;99.90;;;15.11;81.94;164515.06;4976486;28;20027;-86
2022/05/16 02:31:25;;;;;;;10.38;4.20;;;14.10;99.90;;;15.01;82.08;164488.28;4990173;28;20033;-82
2022/05/16 02:33:51;;;;;;;13.65;3.80;;;14.00;99.90;;;14.94;82.67;164468.16;5000372;28;20038;-87
2022/05/16 02:36:17;;;;;;;7.43;3.85;;;13.90;99.90;;;14.87;83.05;164449.41;4978359;28;20031;-86
2022/05/16 02:38:44;;;;;;;9.40;4.18;;;13.90;99.90;;;14.79;83.31;164429.34;4977623;28;20031;-83
2022/05/16 02:41:10;;;;;;;12.35;4.20;;;13.80;99.90;;;14.77;83.86;164425.31;4975105;28;20041;-83
2022/05/16 02:43:36;;;;;;;10.07;4.05;;;13.80;99.90;;;14.77;83.76;164425.31;4975649;28;20070;-85
2022/05/16 02:46:02;;;;;;;12.73;3.97;;;13.80;99.90;;;14.82;83.18;164437.38;4991187;28;20023;-85
2022/05/16 02:48:28;;;;;;;12.63;4.13;;;13.80;99.90;;;14.82;83.73;164437.38;4976442;28;20435;-83
2022/05/16 02:50:54;;;;;;;9.82;4.03;;;13.80;99.90;;;14.83;83.11;164438.72;4976076;28;20027;-84
2022/05/16 02:53:20;;;;;;;10.15;3.92;;;13.80;99.90;;;14.82;83.61;164437.38;4990963;28;20049;-84
2022/05/16 02:55:45;;;;;;;11.70;3.70;;;13.80;99.90;;;14.81;83.19;164434.69;4991196;28;20125;-83
2022/05/16 02:58:11;;;;;;;7.90;3.97;;;13.80;99.90;;;14.80;83.57;164432.03;4974910;28;20030;-86
2022/05/16 03:00:38;;;;;;;9.95;3.95;;;13.80;99.90;;;14.82;83.26;164437.38;4991816;28;20085;-83
2022/05/16 03:03:05;;;;;;;8.85;4.10;;;13.80;99.90;;;14.85;83.32;164445.41;4975858;28;20086;-85
2022/05/16 03:05:31;;;;;;;12.85;4.28;;;13.80;99.90;;;14.86;83.03;164448.13;4977293;28;20117;-85
2022/05/16 03:07:58;;;;;;;11.93;4.50;;;13.80;99.90;;;14.85;83.21;164445.41;4976308;28;20479;-81
2022/05/16 03:10:26;;;;;;;9.80;4.00;;;13.80;99.90;;;14.85;83.25;164445.41;4976069;28;20066;-83
2022/05/16 03:12:52;;;;;;;8.85;4.32;;;13.80;99.90;;;14.83;83.12;164438.72;4978692;28;20100;-84
2022/05/16 03:15:18;;;;;;;9.73;3.63;;;13.80;99.90;;;14.74;83.39;164415.94;4976888;28;20647;-84
2022/05/16 03:17:45;;;;;;;12.27;3.80;;;13.70;99.90;;;14.72;83.89;164411.94;4977102;28;20041;-82
2022/05/16 03:20:15;;;;;;;11.45;4.18;;;13.70;99.90;;;14.69;84.07;164402.56;4979253;28;20053;-82
2022/05/16 03:22:42;;;;;;;11.50;4.32;;;13.80;99.90;;;14.71;83.79;164409.25;4979143;28;20058;-85
2022/05/16 03:25:09;;;;;;;8.05;3.70;;;13.70;99.90;;;14.72;83.84;164410.59;4976795;28;20031;-86
2022/05/16 03:27:35;;;;;;;10.13;4.30;;;13.70;99.90;;;14.70;83.43;164406.56;4980193;28;20034;-85
2022/05/16 03:30:01;;;;;;;14.98;4.30;;;13.70;99.90;;;14.70;83.85;164406.56;4994626;28;20030;-84
2022/05/16 03:32:27;;;;;;;9.95;4.50;;;13.70;99.90;;;14.74;83.49;164417.28;4978959;28;20027;-82
2022/05/16 03:34:54;;;;;;;8.45;4.47;;;13.80;99.90;;;14.83;82.64;164440.09;4994598;28;20031;-85
2022/05/16 03:37:21;;;;;;;10.10;4.25;;;13.90;99.90;;;14.87;82.40;164450.75;4976354;28;20062;-85
2022/05/16 03:42:34;;;;;;;18.33;4.35;;;13.80;99.90;;;14.78;82.81;164428.00;4978695;28;20046;-84
2022/05/16 03:45:00;;;;;;;7.60;4.07;;;13.80;99.90;;;14.77;82.65;164423.97;4976688;28;20046;-87
2022/05/16 03:47:26;;;;;;;13.45;4.35;;;13.80;99.90;;;14.81;82.96;164433.34;4977397;28;20031;-85
2022/05/16 03:49:52;;;;;;;12.35;4.80;;;13.70;99.90;;;14.77;83.00;164423.97;4978900;28;20022;-85
2022/05/16 03:52:19;;;;;;;12.25;4.55;;;13.80;99.90;;;14.71;83.02;164407.91;4977752;28;20085;-86
2022/05/16 03:54:44;;;;;;;10.93;4.15;;;13.80;99.90;;;14.68;83.56;164399.88;4978551;28;20051;-85
2022/05/16 03:57:10;;;;;;;14.30;4.47;;;13.70;99.90;;;14.68;83.54;164399.88;4979877;28;20100;-86
2022/05/16 03:59:36;;;;;;;10.02;4.30;;;13.70;99.90;;;14.69;83.43;164403.91;4980956;28;20130;-85
2022/05/16 04:02:05;;;;;;;11.38;4.40;;;13.70;99.90;;;14.73;83.03;164413.28;4982366;28;20042;-85
2022/05/16 04:04:32;;;;;;;9.63;4.18;;;13.70;99.90;;;14.80;82.79;164430.69;4980132;28;20023;-85
2022/05/16 04:06:58;;;;;;;10.30;4.72;;;13.70;99.90;;;14.77;83.09;164425.31;4978987;28;20034;-87
2022/05/16 04:09:24;;;;;;;15.35;4.78;;;13.70;99.90;;;14.81;83.28;164433.34;4979589;28;20030;-85
2022/05/16 04:11:50;;;;;;;11.52;4.55;;;13.80;99.90;;;14.84;82.95;164442.72;4961888;28;20062;-85
2022/05/16 04:14:16;;;;;;;8.60;4.13;;;13.80;99.90;;;14.84;82.88;164441.38;4965387;28;20032;-84
2022/05/16 04:16:42;;;;;;;8.82;4.47;;;13.80;99.90;;;14.90;82.55;164458.78;4958631;28;20027;-82
2022/05/16 04:19:08;;;;;;;10.63;4.10;;;13.90;99.90;;;14.93;82.23;164466.81;4958313;28;20570;-87
2022/05/16 04:21:37;;;;;;;8.27;4.50;;;13.90;99.90;;;14.92;82.55;164464.19;4974094;28;20507;-84
2022/05/16 04:24:06;;;;;;;11.25;4.05;;;13.90;99.90;;;14.94;82.42;164469.50;4959917;28;20031;-87
2022/05/16 04:26:34;;;;;;;12.75;4.50;;;13.90;99.90;;;14.96;82.28;164474.84;4975041;28;20035;-91
2022/05/16 04:29:00;;;;;;;13.52;4.03;;;13.90;99.90;;;14.97;82.52;164476.19;4961857;28;20042;-89
2022/05/16 04:31:26;;;;;;;12.98;4.25;;;13.90;99.90;;;14.97;82.51;164476.19;4971232;28;20054;-86
2022/05/16 04:33:52;;;;;;;7.68;4.05;;;13.90;99.90;;;14.95;82.47;164472.22;4958522;28;20027;-85
2022/05/16 04:36:19;;;;;;;11.23;4.78;;;13.90;99.90;;;14.93;82.69;164466.81;4959871;28;20066;-87
2022/05/16 04:38:45;;;;;;;11.98;4.28;;;14.00;99.90;;;14.98;82.13;164480.25;4959877;28;20097;-84
2022/05/16 04:43:56;;;;;;;10.82;4.10;;;13.90;99.90;;;15.04;82.04;164496.31;4961747;29;20123;-84
2022/05/16 04:46:21;;;;;;;12.68;4.70;;;14.00;99.90;;;15.06;82.00;164500.31;4974186;28;20051;-84
2022/05/16 04:48:47;;;;;;;17.58;5.05;;;14.00;99.90;;;15.07;82.27;164504.34;4957808;28;20027;-84
2022/05/16 04:51:13;;;;;;;11.45;4.00;;;14.00;99.90;;;15.03;82.82;164492.25;4957751;28;20028;-84
2022/05/16 04:53:40;;;;;;;13.77;5.03;;;14.00;99.90;;;15.05;82.60;164499.00;4957257;28;20031;-84
2022/05/16 04:56:07;;;;;;;13.82;5.57;;;14.00;99.90;;;15.08;82.03;164505.69;4959824;28;20447;-85
2022/05/16 04:58:34;;;;;;;8.90;4.30;;;14.00;99.90;;;15.22;81.83;164544.50;4959051;28;20038;-87
2022/05/16 05:01:04;;;;;;;11.88;4.68;;;14.10;99.90;;;15.28;81.27;164560.59;4960783;28;20042;-83
2022/05/16 05:03:30;;;;;;;12.50;4.50;;;14.20;99.90;;;15.44;80.80;164600.81;4966157;28;20030;-85
2022/05/16 05:05:56;;;;;;;11.32;4.40;;;14.30;99.90;;;15.64;80.05;164655.78;4976298;28;20031;-82
2022/05/16 05:08:22;;;;;;;10.70;4.07;;;14.50;99.90;;;15.91;78.96;164725.47;4979203;28;20130;-82
2022/05/16 05:16:24;;;;;;;10.23;4.22;;;15.20;99.90;;;16.89;73.71;164986.91;4999054;28;20137;-81
2022/05/16 05:18:51;;;;;;;12.75;3.88;;;15.50;99.90;;;17.12;73.17;165047.25;4997500;28;20019;-83
2022/05/16 05:21:17;;;;;;;10.35;3.90;;;15.70;99.90;;;17.46;71.70;165138.50;4993756;28;20037;-86
2022/05/16 05:23:43;;;;;;;8.75;4.00;;;15.90;99.90;;;17.75;70.46;165216.38;5000743;28;20372;-84
2022/05/16 05:26:12;;;;;;;9.15;3.88;;;16.20;99.90;;;18.09;70.66;165304.88;4983819;28;20030;-85
2022/05/16 05:28:41;;;;;;;12.05;4.43;;;16.50;99.90;;;18.34;68.61;165371.97;4986761;28;20019;-83
2022/05/16 05:31:18;;;;;;;9.02;3.97;;;16.70;99.90;;;18.59;66.27;165439.13;4984442;28;20027;-83
2022/05/16 05:33:44;;;;;;;15.70;4.30;;;17.00;99.90;;;18.64;65.88;165451.25;4983318;28;20238;-84
2022/05/16 05:36:11;;;;;;;11.60;4.45;;;17.10;99.90;;;18.71;65.25;165471.41;4983650;28;20097;-84
2022/05/16 05:38:38;;;;;;;10.63;4.20;;;17.20;99.90;;;18.78;64.42;165488.84;4986723;28;20050;-84
2022/05/16 05:41:08;;;;;;;12.77;4.28;;;17.30;99.90;;;19.08;63.22;165569.38;4984893;28;20088;-85
2022/05/16 05:43:35;;;;;;;11.65;4.10;;;17.50;99.90;;;19.33;62.95;165636.50;4983129;28;20023;-85
2022/05/16 05:46:05;;;;;;;15.10;5.13;;;17.70;99.90;;;19.61;61.80;165710.47;4985935;28;20118;-84
2022/05/16 05:48:31;;;;;;;8.65;3.75;;;18.00;99.90;;;20.08;60.62;165835.38;5001384;28;20027;-84
2022/05/16 05:50:59;;;;;;;11.70;4.15;;;18.40;99.90;;;20.64;58.30;165983.25;4988239;28;20030;-85
2022/05/16 05:53:27;;;;;;;8.35;3.70;;;18.90;99.90;;;21.15;57.21;166119.03;5002760;28;20035;-84
2022/05/16 05:55:53;;;;;;;12.98;4.03;;;19.40;99.90;;;21.58;55.14;166233.34;4985073;28;20039;-84
2022/05/16 05:58:21;;;;;;;12.48;4.20;;;19.80;99.90;;;22.07;53.60;166365.16;4997999;28;20026;-85
2022/05/16 06:00:47;;;;;;;9.48;3.90;;;20.20;99.90;;;22.38;52.67;166447.25;4980751;28;20039;-86
2022/05/16 06:03:14;;;;;;;9.52;3.35;;;20.50;99.90;;;22.60;52.01;166506.44;4982737;28;20034;-85
2022/05/16 06:05:40;;;;;;;8.57;3.70;;;20.80;99.90;;;22.79;51.98;166556.25;4982002;28;20034;-85
2022/05/16 06:08:06;;;;;;;11.32;3.90;;;21.00;99.90;;;22.62;50.84;166511.78;4981200;28;20085;-85
2022/05/16 06:10:32;;;;;;;9.98;4.05;;;20.80;99.90;;;22.16;52.87;166388.00;4973354;28;20023;-87
2022/05/16 06:13:01;;;;;;;8.82;3.80;;;20.60;99.90;;;21.88;54.12;166315.34;4964603;28;20031;-85
2022/05/16 06:15:28;;;;;;;13.88;4.72;;;20.30;99.90;;;21.48;55.12;166207.78;4962981;28;20039;-85
2022/05/16 06:17:54;;;;;;;19.10;5.05;;;20.10;99.90;;;21.42;54.95;166192.97;4963189;28;20441;-86
2022/05/16 06:20:20;;;;;;;12.32;4.45;;;20.00;99.90;;;21.21;55.00;166136.53;4961763;28;20050;-85
2022/05/16 06:22:47;;;;;;;8.77;3.90;;;19.80;99.90;;;20.85;56.12;166041.03;4964699;28;20125;-84
2022/05/16 06:25:33;;;;;;;7.85;3.22;;;19.50;99.90;;;20.71;57.04;166003.38;4962561;28;20036;-85
2022/05/16 06:28:15;;;;;;;12.32;4.40;;;19.40;99.90;;;20.49;57.45;165944.25;4992043;28;20026;-82
2022/05/16 06:30:47;;;;;;;12.70;4.13;;;19.20;99.90;;;20.62;57.99;165977.84;4989027;28;20134;-83
2022/05/16 06:33:16;;;;;;;14.00;4.28;;;19.20;99.90;;;20.60;58.04;165973.84;4959437;28;20041;-84
2022/05/16 06:35:43;;;;;;;11.02;4.15;;;19.20;99.90;;;20.73;57.76;166008.78;4958021;28;20023;-81
2022/05/16 06:38:15;;;;;;;12.00;3.83;;;19.30;99.90;;;20.84;58.14;166038.31;4973440;28;20027;-84
2022/05/16 06:40:46;;;;;;;10.15;3.63;;;19.30;99.90;;;20.73;58.59;166008.78;4956963;28;20031;-85
2022/05/16 06:43:13;;;;;;;11.85;3.65;;;19.30;99.90;;;20.64;59.09;165983.25;4958618;29;20040;-83
2022/05/16 06:45:41;;;;;;;12.60;4.20;;;19.20;99.90;;;20.50;59.20;165948.28;4958634;28;20035;-84
2022/05/16 06:48:08;;;;;;;8.57;3.95;;;19.20;99.90;;;20.52;59.39;165953.66;4959551;28;20038;-83
2022/05/16 06:50:37;;;;;;;10.43;3.67;;;19.10;99.90;;;20.50;59.48;165946.94;4956601;28;20491;-84
2022/05/16 06:53:04;;;;;;;12.38;3.80;;;19.10;99.90;;;20.46;60.03;165937.53;4956198;28;20062;-85
2022/05/16 06:55:31;;;;;;;14.02;3.95;;;19.10;99.90;;;20.39;60.26;165917.34;4956710;28;20483;-84
2022/05/16 06:57:58;;;;;;;14.13;4.38;;;19.00;99.90;;;20.32;60.04;165899.94;4956948;28;20027;-83
2022/05/16 07:00:26;;;;;;;12.35;4.05;;;19.00;99.90;;;20.26;60.54;165882.41;4955840;29;20036;-85
2022/05/16 07:02:52;;;;;;;7.22;3.30;;;18.90;99.90;;;20.15;61.20;165854.19;4956332;28;20023;-85
2022/05/16 07:05:18;;;;;;;14.57;3.70;;;18.90;99.90;;;20.11;61.24;165843.44;4957216;28;20058;-85
2022/05/16 07:07:45;;;;;;;12.88;3.55;;;18.80;99.90;;;20.13;61.50;165847.47;4959421;28;20110;-86
2022/05/16 07:10:12;;;;;;;12.65;4.20;;;18.80;99.90;;;20.13;61.86;165848.78;4963674;28;20031;-85
2022/05/16 07:12:38;;;;;;;10.63;3.80;;;18.80;99.90;;;20.17;61.10;165858.19;4977797;28;20066;-83
2022/05/16 07:15:05;;;;;;;12.02;4.30;;;18.90;99.90;;;20.34;61.14;165903.94;4979839;28;20058;-84
2022/05/16 07:17:31;;;;;;;10.55;4.15;;;19.00;99.90;;;20.49;61.38;165945.59;4977124;28;20046;-83
2022/05/16 07:19:57;;;;;;;9.45;3.75;;;19.10;99.90;;;20.71;60.80;166003.38;4993659;28;20030;-86
2022/05/16 07:22:23;;;;;;;13.00;4.70;;;19.30;99.90;;;21.01;60.94;166082.69;4977640;28;20035;-83
2022/05/16 07:24:55;;;;;;;9.07;3.47;;;19.50;99.90;;;21.30;59.24;166159.38;4978515;28;20483;-83
2022/05/16 07:30:10;;;;;;;7.68;3.10;;;20.10;99.90;;;22.04;57.86;166357.09;4979838;28;20105;-85
2022/05/16 07:32:44;;;;;;;9.65;3.55;;;20.40;99.90;;;22.29;56.61;166422.97;4979151;28;20038;-84
2022/05/16 07:35:19;;;;;;;12.18;3.50;;;20.60;99.90;;;22.41;56.58;166456.59;4979855;28;20093;-84
2022/05/16 07:37:46;;;;;;;9.77;3.27;;;20.80;99.90;;;22.59;55.86;166505.06;4978853;28;20127;-86
2022/05/16 07:40:14;;;;;;;11.90;3.95;;;21.00;99.90;;;22.85;55.29;166573.75;4980085;28;20266;-85
2022/05/16 07:42:41;;;;;;;10.73;3.97;;;21.20;99.90;;;23.20;54.52;166666.59;4977641;28;20027;-86
2022/05/16 07:45:09;;;;;;;10.35;3.85;;;21.50;99.90;;;23.74;53.87;166809.31;4994930;28;20027;-86
2022/05/16 07:47:35;;;;;;;11.00;3.42;;;21.90;99.90;;;24.25;52.88;166946.69;4979468;28;20086;-88
2022/05/16 07:50:02;;;;;;;8.70;3.33;;;22.40;99.90;;;24.40;51.25;166987.09;4979589;28;20038;-86
2022/05/16 07:52:30;;;;;;;9.75;3.67;;;22.60;99.90;;;24.38;51.87;166981.72;4979916;28;20304;-85
2022/05/16 07:54:57;;;;;;;13.13;4.10;;;22.60;99.90;;;24.47;52.27;167004.59;4981234;28;20046;-83
2022/05/16 07:57:23;;;;;;;10.32;3.55;;;22.70;99.90;;;24.55;52.69;167027.53;4982268;28;20035;-85
2022/05/16 07:59:49;;;;;;;10.73;3.97;;;22.80;99.90;;;24.61;51.83;167042.31;4980107;28;20041;-84
2022/05/16 08:02:16;;;;;;;11.52;3.72;;;22.90;99.90;;;24.58;50.88;167034.25;4981990;28;20034;-85
2022/05/16 08:04:42;;;;;;;13.65;4.28;;;22.90;99.90;;;24.48;52.25;167008.66;4984576;28;20096;-83
2022/05/16 08:07:08;;;;;;;8.32;3.40;;;22.90;99.90;;;24.28;52.92;166954.78;4980163;28;20054;-84
2022/05/16 08:12:30;;;;;;;13.45;4.20;;;22.50;99.90;;;23.89;54.58;166849.72;4961500;29;20050;-84
2022/05/16 08:14:56;;;;;;;11.40;4.05;;;22.40;99.90;;;23.67;55.12;166790.44;4960313;28;20443;-84
2022/05/16 08:17:23;;;;;;;10.23;3.25;;;22.20;99.90;;;23.50;55.92;166747.38;4963118;28;20031;-83
2022/05/16 08:19:50;;;;;;;9.55;3.25;;;22.00;99.90;;;23.41;56.30;166721.81;4960080;28;20122;-87
2022/05/16 08:22:18;;;;;;;10.35;2.65;;;21.90;99.90;;;23.25;53.71;166678.69;4961493;28;20094;-84
2022/05/16 08:24:45;;;;;;;6.30;2.47;;;21.80;99.90;;;23.05;52.58;166627.53;4961862;28;20027;-84
2022/05/16 08:27:12;;;;;;;7.03;2.25;;;21.80;99.90;;;22.88;52.82;166581.81;4970900;28;20033;-86
2022/05/16 08:29:38;;;;;;;5.55;2.28;;;21.80;99.90;;;22.94;52.53;166597.97;4964039;28;20031;-83
2022/05/16 08:32:05;;;;;;;6.68;2.30;;;21.80;99.50;;;23.18;51.97;166661.22;4977717;28;20031;-87
2022/05/16 08:34:31;;;;;;;5.13;2.10;;;21.90;99.20;;;23.27;51.37;166684.09;4962714;28;20046;-87
2022/05/16 08:39:52;;;;;;;6.97;2.17;;;22.10;97.70;;;23.46;51.01;166735.28;4976153;29;20054;-82
2022/05/16 08:42:40;;;;;;;9.25;2.22;;;22.10;97.30;;;23.29;51.76;166689.47;4989069;28;20032;-84
2022/05/16 08:45:29;;;;;;;5.82;2.15;;;22.10;97.00;;;23.34;51.63;166704.25;4969297;28;20039;-83
2022/05/16 08:48:08;;;;;;;7.40;2.70;;;22.10;97.20;;;23.34;51.90;166704.25;4964711;28;20082;-84
2022/05/16 08:51:04;;;;;;;8.48;2.42;;;22.10;97.70;;;23.38;51.42;166713.69;4980736;28;20468;-84
2022/05/16 08:53:46;;;;;;;10.68;2.60;;;22.20;96.70;;;23.44;52.40;166731.22;4981863;28;20031;-85
2022/05/16 08:56:31;;;;;;;8.23;2.38;;;22.20;98.50;;;23.46;51.75;166736.66;4981363;28;20480;-85
2022/05/16 08:59:14;;;;;;;8.80;2.80;;;22.20;98.10;;;23.32;52.86;166698.88;4979907;28;20027;-84
2022/05/16 09:01:52;;;;;;;3.28;2.17;;;22.10;99.90;;;23.39;52.81;166717.72;4965044;28;20027;-83
2022/05/16 09:04:31;;;;;;;7.88;2.63;;;22.10;99.90;;;23.32;53.72;166698.88;4979312;28;20050;-83
2022/05/16 09:07:25;;;;;;;9.18;2.40;;;22.10;99.90;;;23.49;53.01;166744.72;4963045;28;20062;-84
2022/05/16 09:10:13;;;;;;;6.57;2.45;;;22.10;99.90;;;23.42;53.59;166725.88;4963353;28;20019;-83
2022/05/16 09:13:38;;;;;;;5.38;2.17;;;22.20;99.90;;;23.62;52.51;166778.38;4980803;28;20034;-84
2022/05/16 09:16:41;;;;;;;5.18;2.20;;;22.30;99.90;;;23.99;52.55;166876.63;4980423;28;20195;-85
2022/05/16 09:20:00;;;;;;;5.68;2.38;;;22.60;99.90;;;24.36;51.74;166976.34;4995815;28;20031;-86
2022/05/16 09:23:05;;;;;;;15.50;2.85;;;22.90;99.60;;;24.66;51.07;167055.78;4976085;28;20050;-85
2022/05/16 09:26:34;;;;;;;4.07;2.20;;;23.20;98.20;;;25.03;50.24;167154.19;4979002;28;20085;-84
2022/05/16 09:29:31;;;;;;;6.40;2.20;;;23.50;95.20;;;25.04;49.45;167158.19;4980637;28;20058;-84
2022/05/16 09:32:07;;;;;;;;;;;23.70;93.80;;;24.84;49.21;167103.00;4996421;28;20113;-85
2022/05/16 09:34:34;;;;;;;5.45;2.60;;;23.60;93.10;;;24.80;49.75;167092.16;4996430;28;19910;-88
2022/05/16 09:37:01;;;;;;;6.72;2.40;;;23.40;93.40;;;24.53;50.75;167020.81;4982044;28;20050;-86
2022/05/16 09:39:31;;;;;;;7.53;2.53;;;23.20;95.00;;;24.52;51.16;167019.44;4979747;28;20027;-86
2022/05/16 09:42:33;;;;;;;6.65;2.22;;;23.10;95.60;;;24.35;51.01;166972.28;4980103;28;20384;-84
2022/05/16 09:45:28;;;;;;;7.25;2.60;;;23.00;95.70;;;24.11;52.42;166910.31;4981704;28;20035;-83
2022/05/16 09:47:54;;;;;;;5.80;2.40;;;22.80;97.80;;;23.96;52.18;166869.91;4982260;28;20041;-84
2022/05/16 09:50:24;;;;;;;4.45;2.28;;;22.70;97.70;;;23.82;53.60;166832.22;4980301;28;20023;-86
2022/05/16 09:53:14;;;;;;;4.55;2.15;;;22.60;99.90;;;23.85;53.82;166840.31;4980427;28;20018;-86
2022/05/16 09:55:58;;;;;;;9.02;2.30;;;22.60;99.90;;;23.92;54.08;166857.81;4981625;28;20419;-83
2022/05/16 09:58:55;;;;;;;5.28;2.28;;;22.50;99.90;;;23.70;54.90;166798.53;4982419;28;20037;-83
2022/05/16 10:01:50;;;;;;;12.50;2.60;;;22.40;99.90;;;23.76;55.24;166814.72;4981879;28;20505;-85
2022/05/16 10:04:21;;;;;;;3.22;1.77;;;22.40;99.90;;;23.82;54.99;166830.88;4978560;28;20125;-83
2022/05/16 10:07:04;;;;;;;6.05;2.30;;;22.40;99.90;;;23.86;54.70;166841.59;4978389;28;20098;-85
2022/05/16 10:09:43;;;;;;;5.68;2.58;;;22.50;99.90;;;23.75;56.03;166812.03;4978268;28;20050;-85
2022/05/16 10:12:16;;;;;;;3.45;2.22;;;22.50;99.90;;;23.76;56.13;166814.72;4959236;28;20487;-85
2022/05/16 10:14:43;;;;;;;3.08;1.90;;;22.50;99.90;;;23.82;56.99;166832.22;4959568;28;20054;-86
2022/05/16 10:17:22;;;;;;;4.68;2.13;;;22.50;99.90;;;24.04;55.78;166891.47;4961372;28;20046;-85
2022/05/16 10:19:55;;;;;;;4.93;2.17;;;22.60;99.90;;;24.40;55.14;166987.09;4961901;28;20074;-86
2022/05/16 10:22:25;;;;;;;6.50;2.20;;;22.90;99.90;;;24.68;53.89;167061.19;4961697;28;20027;-85
2022/05/16 10:24:57;;;;;;;4.43;1.88;;;23.10;99.90;;;25.00;52.08;167147.44;4971946;28;20035;-87
2022/05/16 10:27:36;;;;;;;9.93;2.67;;;23.40;99.90;;;25.62;50.90;167313.19;4964254;28;20081;-86
2022/05/16 10:30:27;;;;;;;8.18;2.53;;;23.90;99.90;;;26.19;49.90;167464.22;4962119;28;20029;-86
2022/05/16 10:36:06;;;;;;;6.68;2.30;;;25.00;92.60;;;26.88;47.97;167647.59;4962233;29;20086;-86
2022/05/16 10:38:35;;;;;;;3.70;1.80;;;25.20;90.90;;;26.84;46.79;167636.84;4962248;28;20028;-85
2022/05/16 10:41:15;;;;;;;3.80;2.10;;;25.20;87.20;;;27.05;46.76;167693.47;4961224;28;20472;-89
2022/05/16 10:44:38;;;;;;;4.70;2.20;;;25.30;88.00;;;27.37;46.39;167778.44;4974119;28;20035;-83
2022/05/16 10:47:48;;;;;;;9.80;2.40;;;25.50;87.50;;;27.65;45.57;167854.00;4960550;28;20031;-83
2022/05/16 10:50:28;;;;;;;4.63;1.90;;;25.80;84.50;;;28.31;44.93;168030.81;4962226;28;20027;-86
2022/05/16 10:53:22;;;;;;;5.68;2.28;;;26.40;83.80;;;28.61;43.65;168110.41;4977191;28;20126;-86
2022/05/16 10:56:09;;;;;;;6.65;1.80;;;26.60;80.40;;;29.19;42.37;168267.03;4960681;28;20027;-86
2022/05/16 10:59:06;;;;;;;3.90;1.90;;;27.20;76.80;;;29.98;40.40;168476.44;4960408;28;20038;-86
2022/05/16 11:01:55;;;;;;;5.30;2.17;;;28.00;71.90;;;30.56;39.87;168631.81;4960554;28;20154;-85